Time;durP1;ratioP1;P1;durP2;ratioP2;P2;SDS_P1;SDS_P2;PMS_P1;PMS_P2;Temp;Humidity;BMP_temperature;BMP_pressure;BME280_temperature;BME280_humidity;BME280_pressure;Samples;Min_cycle;Max_cycle;Signal;HPM_P1;HPM_P2
2021/03/26 00:00:15;;;;;;;14.10;6.25;;;10.40;88.70;;;;;;5091648;28;20517;-76
2021/03/26 00:02:42;;;;;;;10.15;6.28;;;10.30;88.90;;;;;;5090685;28;20123;-76
2021/03/26 00:05:15;;;;;;;10.60;6.35;;;10.30;89.10;;;;;;5092145;28;20130;-75
2021/03/26 00:07:42;;;;;;;12.52;6.82;;;10.30;89.60;;;;;;5091482;28;20119;-75
2021/03/26 00:10:13;;;;;;;12.15;6.65;;;10.20;88.70;;;;;;5092361;28;20046;-75
2021/03/26 00:12:40;;;;;;;10.25;6.53;;;10.20;88.50;;;;;;5091192;28;20127;-76
2021/03/26 00:15:09;;;;;;;11.82;6.97;;;10.10;89.80;;;;;;5057044;28;20040;-75
2021/03/26 00:17:36;;;;;;;13.65;6.78;;;10.00;89.90;;;;;;5092057;28;20132;-75
2021/03/26 00:20:04;;;;;;;13.10;6.20;;;9.90;90.50;;;;;;5091657;28;20082;-76
2021/03/26 00:22:31;;;;;;;12.45;6.65;;;9.90;90.30;;;;;;5091670;28;20118;-76
2021/03/26 00:24:58;;;;;;;12.15;6.70;;;9.80;90.90;;;;;;5073812;28;20127;-75
2021/03/26 00:27:25;;;;;;;11.95;6.57;;;9.90;91.30;;;;;;5091907;28;20497;-75
2021/03/26 00:29:52;;;;;;;11.75;6.20;;;10.00;91.10;;;;;;5091130;28;20119;-76
2021/03/26 00:32:18;;;;;;;10.48;6.15;;;10.00;90.90;;;;;;5091541;28;20135;-76
2021/03/26 00:34:45;;;;;;;10.40;6.45;;;10.00;90.80;;;;;;5091760;28;20131;-76
2021/03/26 00:37:12;;;;;;;11.35;6.55;;;10.10;90.70;;;;;;5091675;28;20050;-76
2021/03/26 00:39:38;;;;;;;17.77;9.50;;;10.10;90.80;;;;;;5087246;28;20129;-76
2021/03/26 00:42:06;;;;;;;22.10;11.32;;;10.00;90.80;;;;;;5087444;28;20062;-76
2021/03/26 00:44:34;;;;;;;19.17;10.65;;;10.10;91.00;;;;;;5092109;28;20130;-76
2021/03/26 00:47:01;;;;;;;15.82;8.50;;;10.10;90.90;;;;;;5091804;28;20122;-76
2021/03/26 00:49:27;;;;;;;18.48;10.40;;;10.10;90.70;;;;;;5091161;28;20060;-76
2021/03/26 00:51:54;;;;;;;15.98;8.23;;;10.00;90.80;;;;;;5090797;28;20127;-75
2021/03/26 00:54:21;;;;;;;13.98;7.63;;;10.10;90.80;;;;;;5070587;28;20131;-75
2021/03/26 00:56:48;;;;;;;14.27;7.90;;;10.00;90.70;;;;;;5090462;28;20576;-75
2021/03/26 00:59:14;;;;;;;14.32;8.43;;;9.90;91.10;;;;;;5073779;28;20044;-76
2021/03/26 01:01:42;;;;;;;13.82;8.00;;;9.90;91.20;;;;;;5073311;28;20039;-75
2021/03/26 01:04:09;;;;;;;13.43;7.57;;;9.90;90.80;;;;;;5095800;28;20139;-75
2021/03/26 01:06:36;;;;;;;13.10;7.53;;;9.90;90.80;;;;;;5095499;28;20498;-75
2021/03/26 01:09:04;;;;;;;12.10;7.63;;;9.80;91.10;;;;;;5077860;28;20472;-76
2021/03/26 01:11:34;;;;;;;13.95;7.72;;;9.70;91.20;;;;;;5094406;28;20131;-76
2021/03/26 01:14:03;;;;;;;13.70;8.13;;;9.70;91.50;;;;;;5092474;28;20051;-75
2021/03/26 01:16:30;;;;;;;12.75;7.72;;;9.60;91.70;;;;;;5094738;28;20427;-76
2021/03/26 01:18:58;;;;;;;13.50;8.00;;;9.60;91.80;;;;;;5094633;28;20676;-76
2021/03/26 01:21:28;;;;;;;13.65;8.13;;;9.70;91.90;;;;;;5095097;28;20102;-75
2021/03/26 01:23:56;;;;;;;13.73;7.72;;;9.70;91.80;;;;;;5095096;28;20123;-75
2021/03/26 01:26:24;;;;;;;12.02;7.35;;;9.70;91.90;;;;;;5095193;28;20067;-75
2021/03/26 01:28:51;;;;;;;12.57;7.97;;;9.70;91.80;;;;;;5094154;28;20515;-75
2021/03/26 01:31:18;;;;;;;13.43;7.75;;;9.70;91.90;;;;;;5094749;28;20085;-75
2021/03/26 01:33:45;;;;;;;11.65;7.28;;;9.70;92.00;;;;;;5093567;28;20471;-75
2021/03/26 01:36:13;;;;;;;13.20;7.78;;;9.70;92.10;;;;;;5094916;28;20050;-75
2021/03/26 01:38:39;;;;;;;12.65;7.75;;;9.70;92.10;;;;;;5094560;28;21850;-76
2021/03/26 01:41:09;;;;;;;12.98;7.47;;;9.70;92.20;;;;;;5093863;28;20044;-75
2021/03/26 01:43:40;;;;;;;12.88;7.53;;;9.80;91.90;;;;;;5094092;28;20131;-75
2021/03/26 01:46:09;;;;;;;14.60;8.63;;;9.70;91.80;;;;;;5094164;28;20186;-75
2021/03/26 01:48:40;;;;;;;15.00;8.13;;;9.60;91.70;;;;;;5094241;28;20141;-75
2021/03/26 01:51:13;;;;;;;16.08;8.32;;;9.70;91.50;;;;;;5094180;28;20132;-75
2021/03/26 01:53:40;;;;;;;13.02;7.93;;;9.60;91.80;;;;;;5093904;28;20118;-75
2021/03/26 01:56:08;;;;;;;15.70;8.68;;;9.60;91.90;;;;;;5094135;28;20078;-76
2021/03/26 01:58:37;;;;;;;12.23;7.50;;;9.50;91.90;;;;;;5094042;28;20080;-76
2021/03/26 02:01:09;;;;;;;11.60;7.15;;;9.50;92.10;;;;;;5094661;28;20130;-76
2021/03/26 02:03:39;;;;;;;12.70;7.68;;;9.50;92.40;;;;;;5093720;28;20498;-75
2021/03/26 02:06:16;;;;;;;12.77;7.68;;;9.50;92.40;;;;;;5094608;28;20044;-75
2021/03/26 02:08:44;;;;;;;14.43;7.80;;;9.50;92.30;;;;;;5093850;28;20120;-76
2021/03/26 02:11:21;;;;;;;12.32;7.82;;;9.50;92.30;;;;;;5093885;28;20079;-75
2021/03/26 02:13:49;;;;;;;12.95;7.28;;;9.50;92.30;;;;;;5092706;28;20135;-75
2021/03/26 02:16:18;;;;;;;14.52;8.23;;;9.50;92.40;;;;;;5093066;28;20131;-76
2021/03/26 02:18:45;;;;;;;14.88;8.63;;;9.50;92.00;;;;;;5081674;28;20126;-75
2021/03/26 02:21:17;;;;;;;14.07;7.85;;;9.50;92.00;;;;;;5093005;28;20139;-75
2021/03/26 02:23:45;;;;;;;14.05;8.25;;;9.40;91.70;;;;;;5093825;28;20040;-76
2021/03/26 02:26:19;;;;;;;13.85;7.10;;;9.30;91.80;;;;;;5093286;28;20036;-75
2021/03/26 02:28:47;;;;;;;15.27;7.88;;;9.20;92.20;;;;;;5058892;28;20040;-75
2021/03/26 02:31:14;;;;;;;14.10;8.05;;;9.10;92.70;;;;;;5094139;28;20135;-75
2021/03/26 02:33:40;;;;;;;16.15;8.05;;;9.00;93.00;;;;;;5093691;28;20131;-75
2021/03/26 02:36:40;;;;;;;12.88;7.60;;;8.90;93.30;;;;;;5075022;28;20040;-75
2021/03/26 02:39:22;;;;;;;11.93;6.72;;;8.90;93.60;;;;;;5074431;28;20112;-75
2021/03/26 02:41:55;;;;;;;12.70;7.82;;;9.00;93.70;;;;;;5086686;28;20126;-75
2021/03/26 02:44:34;;;;;;;13.73;7.75;;;9.00;93.50;;;;;;5093718;28;20123;-76
2021/03/26 02:47:14;;;;;;;11.25;6.85;;;9.00;93.50;;;;;;5093495;28;20580;-75
2021/03/26 02:49:47;;;;;;;14.15;6.93;;;9.00;93.60;;;;;;5092940;28;20040;-75
2021/03/26 02:52:25;;;;;;;12.38;6.78;;;9.00;93.60;;;;;;5093706;28;20051;-75
2021/03/26 02:55:00;;;;;;;12.00;7.18;;;9.00;93.60;;;;;;5078324;28;20135;-75
2021/03/26 02:57:32;;;;;;;11.48;6.95;;;9.00;93.70;;;;;;5075140;28;20055;-75
2021/03/26 03:00:07;;;;;;;14.50;7.65;;;9.10;93.60;;;;;;5093634;28;20135;-75
2021/03/26 03:02:34;;;;;;;;;;;9.00;93.60;;;;;;5093122;28;20131;-75
2021/03/26 03:05:09;;;;;;;13.40;7.80;;;9.10;93.50;;;;;;5093619;28;19920;-75
2021/03/26 03:07:41;;;;;;;14.98;8.13;;;9.10;93.00;;;;;;5093804;28;20132;-75
2021/03/26 03:10:22;;;;;;;12.55;7.22;;;9.00;93.00;;;;;;5093112;28;20105;-75
2021/03/26 03:12:51;;;;;;;11.60;7.13;;;8.90;93.30;;;;;;5080318;28;20152;-76
2021/03/26 03:15:22;;;;;;;12.73;7.15;;;8.90;93.40;;;;;;5093305;28;20131;-75
2021/03/26 03:17:57;;;;;;;11.32;7.25;;;8.80;93.60;;;;;;5092688;28;20040;-76
2021/03/26 03:20:33;;;;;;;10.23;6.72;;;8.80;93.70;;;;;;5092972;28;20139;-76
2021/03/26 03:23:11;;;;;;;12.38;7.22;;;8.80;93.80;;;;;;5075686;28;20127;-76
2021/03/26 03:25:39;;;;;;;13.90;7.28;;;8.80;94.00;;;;;;5092738;28;20052;-75
2021/03/26 03:28:21;;;;;;;11.38;6.63;;;8.80;94.00;;;;;;5092886;28;20083;-75
2021/03/26 03:31:03;;;;;;;11.60;6.82;;;8.80;93.90;;;;;;5092020;28;20135;-76
2021/03/26 03:33:44;;;;;;;13.60;7.22;;;8.80;93.90;;;;;;5092676;28;20465;-75
2021/03/26 03:36:17;;;;;;;13.18;7.40;;;8.90;93.90;;;;;;5092734;28;20126;-75
2021/03/26 03:38:55;;;;;;;13.98;7.97;;;8.90;93.80;;;;;;5092546;28;20135;-76
2021/03/26 03:41:33;;;;;;;13.40;7.75;;;8.90;93.50;;;;;;5084596;28;20072;-75
2021/03/26 03:44:11;;;;;;;12.00;7.38;;;8.80;93.00;;;;;;5092801;28;20171;-76
2021/03/26 03:46:51;;;;;;;11.77;6.30;;;8.80;93.20;;;;;;5092948;28;20071;-76
2021/03/26 03:49:27;;;;;;;10.80;6.43;;;8.60;93.60;;;;;;5080989;28;20071;-76
2021/03/26 03:52:01;;;;;;;11.80;6.25;;;8.50;93.70;;;;;;5092538;28;20123;-75
2021/03/26 03:54:32;;;;;;;10.65;5.90;;;8.50;93.70;;;;;;5092945;28;20052;-75
2021/03/26 03:57:05;;;;;;;12.68;6.70;;;8.40;93.90;;;;;;5092831;28;20044;-75
2021/03/26 03:59:39;;;;;;;12.77;6.97;;;8.30;94.00;;;;;;5091846;28;20135;-75
2021/03/26 04:02:14;;;;;;;12.82;7.10;;;8.30;94.50;;;;;;5073251;28;20051;-75
2021/03/26 04:04:46;;;;;;;11.02;5.90;;;8.30;94.60;;;;;;5065359;28;20131;-75
2021/03/26 04:07:18;;;;;;;12.02;6.93;;;8.30;94.00;;;;;;5089503;28;20921;-75
2021/03/26 04:09:51;;;;;;;11.43;7.30;;;8.20;94.50;;;;;;5099356;28;20052;-76
2021/03/26 04:12:23;;;;;;;11.38;6.28;;;8.10;94.90;;;;;;5089513;28;20157;-75
2021/03/26 04:14:56;;;;;;;9.23;5.75;;;8.10;95.40;;;;;;5092394;28;20067;-76
2021/03/26 04:17:27;;;;;;;12.05;6.57;;;8.20;95.40;;;;;;5092533;28;20134;-75
2021/03/26 04:19:59;;;;;;;11.60;6.80;;;8.20;95.10;;;;;;5092441;28;20036;-76
2021/03/26 04:22:31;;;;;;;13.20;7.50;;;8.30;95.10;;;;;;5087873;28;20051;-75
2021/03/26 04:25:07;;;;;;;13.18;6.97;;;8.40;95.30;;;;;;5086643;28;20059;-75
2021/03/26 04:27:38;;;;;;;12.40;7.18;;;8.40;95.00;;;;;;5092325;28;20076;-76
2021/03/26 04:30:12;;;;;;;12.20;7.22;;;8.50;94.70;;;;;;5092658;28;20122;-76
2021/03/26 04:32:40;;;;;;;13.35;7.38;;;8.50;94.90;;;;;;5092087;28;20127;-75
2021/03/26 04:35:11;;;;;;;12.27;7.45;;;8.50;94.90;;;;;;5092252;28;20460;-75
2021/03/26 04:37:47;;;;;;;12.38;7.70;;;8.50;94.90;;;;;;5094889;28;20135;-76
2021/03/26 04:40:19;;;;;;;12.65;7.72;;;8.50;94.90;;;;;;5096081;28;20127;-76
2021/03/26 04:42:51;;;;;;;12.23;7.70;;;8.50;94.90;;;;;;5085555;28;20511;-75
2021/03/26 04:45:25;;;;;;;14.48;7.80;;;8.60;94.90;;;;;;5096278;28;20080;-76
2021/03/26 04:48:04;;;;;;;14.07;8.50;;;8.60;94.70;;;;;;5095943;28;20119;-76
2021/03/26 04:50:35;;;;;;;14.77;7.60;;;8.70;94.30;;;;;;5095986;28;20048;-76
2021/03/26 04:53:11;;;;;;;13.35;7.80;;;8.60;94.30;;;;;;5095804;28;20120;-75
2021/03/26 04:55:43;;;;;;;13.48;7.63;;;8.60;94.20;;;;;;5096027;28;20131;-76
2021/03/26 04:58:17;;;;;;;12.80;7.20;;;8.50;94.30;;;;;;5095210;28;20608;-76
2021/03/26 05:00:48;;;;;;;11.65;6.82;;;8.50;94.60;;;;;;5094151;28;20039;-75
2021/03/26 05:03:21;;;;;;;13.10;7.90;;;8.60;94.40;;;;;;5095492;28;20135;-75
2021/03/26 05:05:52;;;;;;;11.88;7.10;;;8.50;94.50;;;;;;5095942;28;20139;-75
2021/03/26 05:08:25;;;;;;;13.38;7.85;;;8.50;94.50;;;;;;5095240;28;20131;-75
2021/03/26 05:10:54;;;;;;;12.75;7.78;;;8.50;94.10;;;;;;5095550;28;20128;-75
2021/03/26 05:13:29;;;;;;;13.63;7.43;;;8.50;94.10;;;;;;5095451;28;20131;-75
2021/03/26 05:16:03;;;;;;;12.13;7.40;;;8.40;94.20;;;;;;5095579;28;20135;-75
2021/03/26 05:18:36;;;;;;;13.60;7.25;;;8.40;94.40;;;;;;5094700;28;20131;-75
2021/03/26 05:21:08;;;;;;;10.18;7.05;;;8.30;94.70;;;;;;5095277;28;20143;-76
2021/03/26 05:23:42;;;;;;;13.00;7.70;;;8.30;94.80;;;;;;5094710;28;20044;-76
2021/03/26 05:26:09;;;;;;;10.90;7.15;;;8.30;94.90;;;;;;5094920;28;20056;-75
2021/03/26 05:28:41;;;;;;;11.63;7.18;;;8.30;94.90;;;;;;5096055;28;20122;-75
2021/03/26 05:31:29;;;;;;;13.25;7.63;;;8.30;94.90;;;;;;5094638;28;20126;-75
2021/03/26 05:34:01;;;;;;;11.65;7.45;;;8.30;94.70;;;;;;5080680;28;20039;-76
2021/03/26 05:36:36;;;;;;;11.57;7.05;;;8.30;94.50;;;;;;5095689;28;20138;-75
2021/03/26 05:39:06;;;;;;;;;;;8.30;94.60;;;;;;5094933;28;20620;-75
2021/03/26 05:42:10;;;;;;;11.25;7.45;;;8.20;94.80;;;;;;5093928;28;20011;-75
2021/03/26 05:44:56;;;;;;;;;;;8.20;95.00;;;;;;5095686;28;20127;-75
2021/03/26 05:47:40;;;;;;;12.05;6.90;;;8.20;94.80;;;;;;5093772;28;20010;-75
2021/03/26 05:50:32;;;;;;;11.63;7.10;;;8.20;94.80;;;;;;5095395;28;20140;-75
2021/03/26 05:53:17;;;;;;;12.90;7.68;;;8.10;94.60;;;;;;5094730;28;20123;-75
2021/03/26 05:55:52;;;;;;;12.93;7.82;;;8.10;94.60;;;;;;5091338;28;20051;-75
2021/03/26 05:58:43;;;;;;;13.77;7.78;;;8.00;94.60;;;;;;5094729;28;20130;-75
2021/03/26 06:01:35;;;;;;;13.80;7.38;;;8.00;94.50;;;;;;5094678;28;20055;-75
2021/03/26 06:04:57;;;;;;;12.88;6.75;;;7.90;94.80;;;;;;5074681;28;20135;-75
2021/03/26 06:08:17;;;;;;;12.85;7.00;;;7.90;95.40;;;;;;5069766;28;20040;-75
2021/03/26 06:11:08;;;;;;;11.82;6.82;;;7.90;95.30;;;;;;5094691;28;20452;-75
2021/03/26 06:14:10;;;;;;;13.75;7.07;;;7.80;94.80;;;;;;5076902;28;20044;-75
2021/03/26 06:16:49;;;;;;;13.20;6.68;;;7.80;95.20;;;;;;5094542;28;20048;-75
2021/03/26 06:19:56;;;;;;;11.90;7.00;;;7.80;95.80;;;;;;5094585;28;20135;-75
2021/03/26 06:23:27;;;;;;;14.60;8.18;;;7.80;96.00;;;;;;5105886;28;20082;-75
2021/03/26 06:26:06;;;;;;;15.05;7.78;;;7.90;95.70;;;;;;5093653;28;20119;-75
2021/03/26 06:28:42;;;;;;;11.35;6.93;;;8.00;95.90;;;;;;5094357;28;20044;-75
2021/03/26 06:31:59;;;;;;;13.65;7.72;;;8.00;95.20;;;;;;5093737;28;20589;-75
2021/03/26 06:35:34;;;;;;;12.15;8.05;;;8.00;95.40;;;;;;5094582;28;20048;-75
2021/03/26 06:38:35;;;;;;;15.80;8.52;;;7.90;95.30;;;;;;5063882;28;20127;-76
2021/03/26 06:41:12;;;;;;;13.20;7.95;;;7.90;95.90;;;;;;5080936;28;20130;-75
2021/03/26 06:44:30;;;;;;;14.32;8.23;;;7.90;96.10;;;;;;5093651;28;20131;-75
2021/03/26 06:47:04;;;;;;;16.70;9.10;;;8.00;96.10;;;;;;5073972;28;20123;-75
2021/03/26 06:49:45;;;;;;;14.63;8.63;;;8.00;96.00;;;;;;5073807;28;20055;-75
2021/03/26 06:52:40;;;;;;;14.52;8.80;;;8.00;96.20;;;;;;5076229;28;20044;-75
2021/03/26 06:55:26;;;;;;;15.60;9.75;;;8.10;96.40;;;;;;5101937;28;20476;-75
2021/03/26 06:58:36;;;;;;;16.80;8.35;;;8.10;96.30;;;;;;5095528;28;20040;-75
2021/03/26 07:01:27;;;;;;;13.60;7.97;;;8.10;96.60;;;;;;5093135;28;20311;-75
2021/03/26 07:04:32;;;;;;;15.52;9.02;;;8.20;96.50;;;;;;5093543;28;20399;-75
2021/03/26 07:07:52;;;;;;;13.02;8.25;;;8.30;96.40;;;;;;5093435;28;20552;-75
2021/03/26 07:10:37;;;;;;;12.88;8.65;;;8.40;96.30;;;;;;5073368;28;20131;-75
2021/03/26 07:13:36;;;;;;;15.52;9.25;;;8.60;96.20;;;;;;5093192;28;20548;-75
2021/03/26 07:16:34;;;;;;;15.63;9.23;;;8.60;96.20;;;;;;5093360;28;20123;-75
2021/03/26 07:19:30;;;;;;;14.98;9.13;;;8.60;96.00;;;;;;5093514;28;20460;-75
2021/03/26 07:22:36;;;;;;;13.02;8.73;;;8.70;96.20;;;;;;5077219;28;20056;-75
2021/03/26 07:25:20;;;;;;;13.65;9.20;;;8.80;96.20;;;;;;5059807;28;20131;-75
2021/03/26 07:28:05;;;;;;;13.82;9.13;;;8.90;96.20;;;;;;5093552;28;20469;-75
2021/03/26 07:30:46;;;;;;;13.07;8.95;;;9.00;96.20;;;;;;5092914;28;20461;-76
2021/03/26 07:33:24;;;;;;;14.55;9.55;;;9.10;96.00;;;;;;5093299;28;20162;-75
2021/03/26 07:36:28;;;;;;;15.63;10.52;;;9.20;95.60;;;;;;5093276;28;20048;-75
2021/03/26 07:39:38;;;;;;;18.58;10.95;;;9.30;95.50;;;;;;5093704;28;20040;-75
2021/03/26 07:42:30;;;;;;;16.60;9.65;;;9.40;95.20;;;;;;5083061;28;20051;-75
2021/03/26 07:45:18;;;;;;;16.60;9.98;;;9.50;95.20;;;;;;5086299;28;20135;-75
2021/03/26 07:48:13;;;;;;;16.35;9.30;;;9.50;95.00;;;;;;5092721;28;20572;-75
2021/03/26 07:50:50;;;;;;;15.60;8.95;;;9.60;95.10;;;;;;5093770;28;20063;-76
2021/03/26 07:53:35;;;;;;;14.88;8.60;;;9.70;94.90;;;;;;5076952;28;20046;-75
2021/03/26 07:56:23;;;;;;;15.20;9.20;;;9.80;94.80;;;;;;5093084;28;20483;-76
2021/03/26 07:59:10;;;;;;;17.25;9.50;;;10.00;94.70;;;;;;5054055;28;20051;-75
2021/03/26 08:02:17;;;;;;;15.50;9.55;;;10.10;94.40;;;;;;5071344;28;20051;-75
2021/03/26 08:04:51;;;;;;;13.25;8.55;;;10.20;94.40;;;;;;5060648;28;20528;-74
2021/03/26 08:08:05;;;;;;;12.68;8.70;;;10.30;94.40;;;;;;5093766;28;20513;-75
2021/03/26 08:10:39;;;;;;;14.43;8.88;;;10.40;94.20;;;;;;5093150;28;20127;-75
2021/03/26 08:13:26;;;;;;;13.82;9.02;;;10.50;94.00;;;;;;5062311;28;20404;-75
2021/03/26 08:16:41;;;;;;;15.38;9.63;;;10.60;93.60;;;;;;5092159;28;20067;-75
2021/03/26 08:19:20;;;;;;;15.00;8.93;;;10.60;93.30;;;;;;5064110;28;20040;-75
2021/03/26 08:21:57;;;;;;;13.13;9.25;;;10.70;93.30;;;;;;5097599;28;20083;-75
2021/03/26 08:24:55;;;;;;;14.85;8.80;;;10.70;93.20;;;;;;5097747;28;20521;-76
2021/03/26 08:27:33;;;;;;;14.73;9.07;;;10.80;93.20;;;;;;5102869;28;20075;-75
2021/03/26 08:30:24;;;;;;;15.00;9.88;;;10.80;93.10;;;;;;5104779;28;20048;-75
2021/03/26 08:33:18;;;;;;;12.57;8.68;;;10.90;92.80;;;;;;5098078;28;20048;-75
2021/03/26 08:36:08;;;;;;;12.88;8.50;;;10.90;92.80;;;;;;5105405;28;20087;-75
2021/03/26 08:38:50;;;;;;;12.95;8.90;;;11.00;92.80;;;;;;5105867;28;20494;-75
2021/03/26 08:41:22;;;;;;;15.98;8.90;;;11.10;92.70;;;;;;5106064;28;20093;-76
2021/03/26 08:43:52;;;;;;;15.15;9.10;;;11.10;92.60;;;;;;5105497;28;20557;-75
2021/03/26 08:46:24;;;;;;;13.18;8.82;;;11.20;92.50;;;;;;5106483;28;20043;-75
2021/03/26 08:49:03;;;;;;;16.88;8.85;;;11.30;92.40;;;;;;5087593;28;20079;-76
2021/03/26 08:52:19;;;;;;;14.32;8.95;;;11.30;92.50;;;;;;5106069;28;20079;-75
2021/03/26 08:55:26;;;;;;;15.50;9.52;;;11.40;92.00;;;;;;5101502;28;20493;-75
2021/03/26 08:58:09;;;;;;;14.90;9.13;;;11.40;91.80;;;;;;5106245;28;20047;-76
2021/03/26 09:01:04;;;;;;;14.90;9.85;;;11.50;91.90;;;;;;5086458;28;20468;-75
2021/03/26 09:03:47;;;;;;;18.08;9.48;;;11.60;91.30;;;;;;5085745;28;20090;-76
2021/03/26 09:06:24;;;;;;;13.27;8.75;;;11.60;91.30;;;;;;5086791;28;20044;-76
2021/03/26 09:09:31;;;;;;;13.13;9.10;;;11.70;91.40;;;;;;5085005;28;20139;-75
2021/03/26 09:12:17;;;;;;;14.43;8.63;;;11.80;91.30;;;;;;5084857;28;20082;-75
2021/03/26 09:15:22;;;;;;;16.50;10.40;;;11.80;91.10;;;;;;5105586;28;20080;-75
2021/03/26 09:17:56;;;;;;;18.05;9.88;;;11.90;90.80;;;;;;5105479;28;20055;-76
2021/03/26 09:20:33;;;;;;;14.80;9.03;;;12.00;90.60;;;;;;5104807;28;20461;-75
2021/03/26 09:23:40;;;;;;;15.95;9.70;;;12.00;90.50;;;;;;5101675;28;20341;-75
2021/03/26 09:26:43;;;;;;;14.32;8.88;;;12.10;90.40;;;;;;5082295;28;20131;-75
2021/03/26 09:29:16;;;;;;;17.53;10.37;;;12.10;90.00;;;;;;5106108;28;20103;-76
2021/03/26 09:31:49;;;;;;;15.50;9.45;;;12.30;89.90;;;;;;5107683;28;20326;-76
2021/03/26 09:34:26;;;;;;;13.70;8.57;;;12.30;89.40;;;;;;5106147;28;20063;-75
2021/03/26 09:37:10;;;;;;;13.85;8.38;;;12.40;89.20;;;;;;5106276;28;20490;-75
2021/03/26 09:39:39;;;;;;;14.45;9.48;;;12.50;88.80;;;;;;5104634;28;20048;-76
2021/03/26 09:42:40;;;;;;;16.90;9.38;;;12.60;87.80;;;;;;5102691;28;20143;-75
2021/03/26 09:45:28;;;;;;;16.58;10.32;;;12.70;87.40;;;;;;5104825;28;20089;-75
2021/03/26 09:48:40;;;;;;;14.05;8.77;;;12.70;86.10;;;;;;5080637;28;20040;-75
2021/03/26 09:51:18;;;;;;;17.65;9.43;;;12.80;86.20;;;;;;5098191;28;20044;-76
2021/03/26 09:53:45;;;;;;;15.93;9.50;;;12.90;85.70;;;;;;5098630;28;20044;-75
2021/03/26 09:56:33;;;;;;;15.35;9.02;;;13.00;85.00;;;;;;5097177;28;20131;-76
2021/03/26 09:59:06;;;;;;;13.50;8.75;;;13.10;84.80;;;;;;5097880;28;20503;-76
2021/03/26 10:01:40;;;;;;;16.63;9.60;;;13.10;84.70;;;;;;5098266;28;20070;-75
2021/03/26 10:04:10;;;;;;;15.25;9.45;;;13.10;84.40;;;;;;5095983;28;20140;-76
2021/03/26 10:06:59;;;;;;;15.15;8.55;;;13.10;83.80;;;;;;5095252;28;20127;-75
2021/03/26 10:09:36;;;;;;;13.77;9.20;;;13.30;84.00;;;;;;5065801;28;20453;-75
2021/03/26 10:12:19;;;;;;;12.90;8.45;;;13.30;83.30;;;;;;5097223;28;20074;-75
2021/03/26 10:14:58;;;;;;;14.48;8.40;;;13.40;83.10;;;;;;5077288;28;20076;-75
2021/03/26 10:17:53;;;;;;;12.18;8.13;;;13.50;82.70;;;;;;5076494;28;20131;-75
2021/03/26 10:20:31;;;;;;;14.93;10.13;;;13.60;82.20;;;;;;5098253;28;20634;-76
2021/03/26 10:23:25;;;;;;;16.13;9.10;;;13.60;81.10;;;;;;5081325;28;20519;-76
2021/03/26 10:26:00;;;;;;;;;;;13.70;81.40;;;;;;5093282;28;20485;-75
2021/03/26 10:28:53;;;;;;;14.95;8.77;;;13.70;80.80;;;;;;5093997;28;20437;-77
2021/03/26 10:31:33;;;;;;;12.25;7.97;;;13.80;80.20;;;;;;5088998;28;20071;-77
2021/03/26 10:34:03;;;;;;;15.82;8.90;;;13.90;80.30;;;;;;5072808;28;20079;-75
2021/03/26 10:36:40;;;;;;;12.98;7.50;;;14.00;79.20;;;;;;5085869;28;20086;-75
2021/03/26 10:39:11;;;;;;;15.93;9.65;;;14.10;79.10;;;;;;5087682;28;20119;-76
2021/03/26 10:41:53;;;;;;;16.23;9.02;;;14.20;75.50;;;;;;5098267;28;20090;-75
2021/03/26 10:44:31;;;;;;;10.90;7.32;;;14.30;75.70;;;;;;5093505;28;20079;-75
2021/03/26 10:47:15;;;;;;;14.55;8.90;;;14.30;76.70;;;;;;5086127;28;20119;-76
2021/03/26 10:49:48;;;;;;;9.65;6.22;;;14.40;75.90;;;;;;5101229;28;20048;-76
2021/03/26 10:52:20;;;;;;;12.82;7.20;;;14.40;75.20;;;;;;5105801;28;20099;-76
2021/03/26 10:54:54;;;;;;;13.38;8.13;;;14.50;75.30;;;;;;5089665;28;20128;-76
2021/03/26 10:57:32;;;;;;;11.43;7.57;;;14.60;74.00;;;;;;5095794;28;20124;-76
2021/03/26 11:00:08;;;;;;;10.70;6.68;;;14.60;73.80;;;;;;5066971;28;20083;-75
2021/03/26 11:02:56;;;;;;;12.02;7.13;;;14.70;74.50;;;;;;5094173;28;20047;-76
2021/03/26 11:05:40;;;;;;;12.40;7.97;;;14.90;73.80;;;;;;5079183;28;20123;-76
2021/03/26 11:08:36;;;;;;;9.80;5.95;;;14.90;71.90;;;;;;5108679;28;20048;-76
2021/03/26 11:11:13;;;;;;;11.50;6.80;;;15.00;72.30;;;;;;5094568;28;20062;-76
2021/03/26 11:14:04;;;;;;;9.23;5.90;;;15.10;70.50;;;;;;5077478;28;20475;-76
2021/03/26 11:16:37;;;;;;;9.10;5.68;;;15.20;69.90;;;;;;5090479;28;20135;-76
2021/03/26 11:19:11;;;;;;;11.13;6.40;;;15.30;70.10;;;;;;5088485;28;20048;-75
2021/03/26 11:21:45;;;;;;;10.80;5.40;;;15.40;68.50;;;;;;5092197;28;20590;-76
2021/03/26 11:24:14;;;;;;;8.47;4.87;;;15.40;65.20;;;;;;5095518;28;20134;-76
2021/03/26 11:26:46;;;;;;;9.32;4.72;;;15.40;64.50;;;;;;5093579;28;20394;-76
2021/03/26 11:29:22;;;;;;;8.68;5.47;;;15.50;63.50;;;;;;5093534;28;20051;-76
2021/03/26 11:31:57;;;;;;;9.75;5.75;;;15.70;61.60;;;;;;5093011;28;20048;-75
2021/03/26 11:34:40;;;;;;;9.02;5.55;;;15.80;61.00;;;;;;5093292;28;20047;-76
2021/03/26 11:37:32;;;;;;;8.57;5.10;;;16.00;58.40;;;;;;5086822;28;20131;-76
2021/03/26 11:40:06;;;;;;;9.60;5.35;;;16.00;58.50;;;;;;5088765;28;20052;-76
2021/03/26 11:42:45;;;;;;;7.47;4.22;;;16.10;58.30;;;;;;5072925;28;20127;-76
2021/03/26 11:45:45;;;;;;;8.20;3.97;;;16.10;57.80;;;;;;5091207;28;20040;-76
2021/03/26 11:48:25;;;;;;;7.70;4.20;;;16.20;56.50;;;;;;5081282;28;20552;-76
2021/03/26 11:51:03;;;;;;;10.80;6.00;;;16.30;54.70;;;;;;5086078;28;20462;-76
2021/03/26 11:53:37;;;;;;;10.00;5.10;;;16.60;52.90;;;;;;5093138;28;20135;-76
2021/03/26 11:56:30;;;;;;;8.93;5.00;;;16.60;52.80;;;;;;5079569;28;20190;-76
2021/03/26 11:59:48;;;;;;;8.52;4.60;;;16.70;52.90;;;;;;5089876;28;20047;-76
2021/03/26 12:02:37;;;;;;;9.63;5.18;;;16.70;53.60;;;;;;5064714;28;20052;-76
2021/03/26 12:05:14;;;;;;;8.68;4.90;;;16.90;52.30;;;;;;5058892;28;20047;-76
2021/03/26 12:07:46;;;;;;;10.20;5.78;;;17.00;52.90;;;;;;5081069;28;20591;-76
2021/03/26 12:10:29;;;;;;;8.77;4.32;;;17.10;52.10;;;;;;5072273;28;20637;-76
2021/03/26 12:13:07;;;;;;;8.35;5.28;;;17.10;53.10;;;;;;5090587;28;20409;-76
2021/03/26 12:15:39;;;;;;;9.57;5.35;;;17.20;51.40;;;;;;5087762;28;20045;-76
2021/03/26 12:18:15;;;;;;;11.02;5.45;;;17.30;52.20;;;;;;5090367;28;20119;-76
2021/03/26 12:20:43;;;;;;;10.52;5.68;;;17.40;52.20;;;;;;5090418;28;20076;-76
2021/03/26 12:23:38;;;;;;;10.27;5.20;;;17.40;52.00;;;;;;5089780;28;20044;-76
2021/03/26 12:26:17;;;;;;;10.23;6.13;;;17.60;52.50;;;;;;5088730;28;20446;-77
2021/03/26 12:29:27;;;;;;;8.57;5.28;;;17.80;51.60;;;;;;5090072;28;20048;-76
2021/03/26 12:32:04;;;;;;;10.38;5.22;;;17.90;50.40;;;;;;5054857;28;20410;-76
2021/03/26 12:34:51;;;;;;;9.65;6.03;;;17.90;51.90;;;;;;5091053;28;20115;-75
2021/03/26 12:37:25;;;;;;;11.02;5.78;;;18.00;50.10;;;;;;5088519;28;20615;-76
2021/03/26 12:40:10;;;;;;;10.90;6.03;;;18.10;50.20;;;;;;5090657;28;20051;-75
2021/03/26 12:42:42;;;;;;;13.32;7.53;;;18.10;50.50;;;;;;5090664;28;20136;-76
2021/03/26 12:45:19;;;;;;;9.18;6.05;;;18.30;50.00;;;;;;5072945;28;20134;-76
2021/03/26 12:47:50;;;;;;;9.88;5.35;;;18.30;49.80;;;;;;5090431;28;20483;-75
2021/03/26 12:50:22;;;;;;;10.00;5.05;;;18.40;49.00;;;;;;5089884;28;20126;-75
2021/03/26 12:53:03;;;;;;;9.27;4.97;;;18.50;48.80;;;;;;5089799;28;20047;-76
2021/03/26 12:55:44;;;;;;;7.43;3.92;;;18.60;49.00;;;;;;5073088;28;20514;-76
2021/03/26 12:58:46;;;;;;;10.35;4.85;;;18.70;50.00;;;;;;5073380;28;20126;-76
2021/03/26 13:01:18;;;;;;;8.52;4.93;;;19.00;47.50;;;;;;5085579;28;20123;-75
2021/03/26 13:03:57;;;;;;;7.97;4.63;;;19.10;46.90;;;;;;5093700;28;20139;-76
2021/03/26 13:06:34;;;;;;;7.18;4.72;;;19.10;47.10;;;;;;5093934;28;20075;-76
2021/03/26 13:09:19;;;;;;;8.13;5.38;;;19.20;47.00;;;;;;5094233;28;20052;-76
2021/03/26 13:11:51;;;;;;;8.73;5.22;;;19.40;46.60;;;;;;5093796;28;20091;-76
2021/03/26 13:14:25;;;;;;;9.45;5.47;;;19.50;45.60;;;;;;5093183;28;20044;-75
2021/03/26 13:16:52;;;;;;;11.38;5.18;;;19.50;45.10;;;;;;5093516;28;20118;-76
2021/03/26 13:19:35;;;;;;;7.80;4.38;;;19.50;45.50;;;;;;5093460;28;20144;-76
2021/03/26 13:22:31;;;;;;;6.72;3.85;;;19.60;46.20;;;;;;5093560;28;20105;-75
2021/03/26 13:25:10;;;;;;;7.80;4.45;;;19.80;45.40;;;;;;5092196;28;20142;-76
2021/03/26 13:28:06;;;;;;;6.15;3.90;;;20.10;43.40;;;;;;5093300;28;20476;-76
2021/03/26 13:30:42;;;;;;;6.07;3.42;;;20.20;43.30;;;;;;5093355;28;20083;-75
2021/03/26 13:33:19;;;;;;;8.20;3.42;;;20.50;43.30;;;;;;5093838;28;20060;-75
2021/03/26 13:35:58;;;;;;;5.47;2.90;;;20.80;43.20;;;;;;5075844;28;20181;-77
2021/03/26 13:39:16;;;;;;;5.50;2.92;;;21.10;43.00;;;;;;5093510;28;20136;-75
2021/03/26 13:41:57;;;;;;;6.72;3.15;;;21.50;41.70;;;;;;5075776;28;20134;-76
2021/03/26 13:44:52;;;;;;;6.78;3.20;;;21.90;38.80;;;;;;5093723;28;20046;-75
2021/03/26 13:47:26;;;;;;;5.82;3.08;;;21.80;37.80;;;;;;5092228;28;20070;-75
2021/03/26 13:50:03;;;;;;;5.82;3.05;;;21.60;38.60;;;;;;5093194;28;20054;-76